sensor_id;sensor_type;location;lat;lon;timestamp;pressure;altitude;pressure_sealevel;temperature;humidity
5996;BME280;3026;53.612;7.278;2023-03-13T00:02:21;99912.00;;;8.85;100.00
5996;BME280;3026;53.612;7.278;2023-03-13T00:04:48;99905.31;;;8.88;100.00
5996;BME280;3026;53.612;7.278;2023-03-13T00:07:17;99903.25;;;8.90;100.00
5996;BME280;3026;53.612;7.278;2023-03-13T00:09:44;99902.41;;;8.89;100.00
5996;BME280;3026;53.612;7.278;2023-03-13T00:12:11;99902.22;;;8.91;100.00
5996;BME280;3026;53.612;7.278;2023-03-13T00:14:38;99889.47;;;8.91;100.00
5996;BME280;3026;53.612;7.278;2023-03-13T00:17:05;99890.16;;;8.93;100.00
5996;BME280;3026;53.612;7.278;2023-03-13T00:19:31;99877.41;;;8.94;100.00
5996;BME280;3026;53.612;7.278;2023-03-13T00:21:58;99887.06;;;8.96;100.00
5996;BME280;3026;53.612;7.278;2023-03-13T00:24:26;99875.16;;;8.97;100.00
5996;BME280;3026;53.612;7.278;2023-03-13T00:26:54;99866.16;;;8.97;100.00
5996;BME280;3026;53.612;7.278;2023-03-13T00:29:22;99858.66;;;8.99;100.00
5996;BME280;3026;53.612;7.278;2023-03-13T00:31:49;99856.41;;;9.02;100.00
5996;BME280;3026;53.612;7.278;2023-03-13T00:34:16;99856.25;;;9.04;100.00
5996;BME280;3026;53.612;7.278;2023-03-13T00:36:43;99841.63;;;9.05;100.00
5996;BME280;3026;53.612;7.278;2023-03-13T00:39:10;99832.44;;;9.06;100.00
5996;BME280;3026;53.612;7.278;2023-03-13T00:41:38;99824.91;;;9.08;100.00
5996;BME280;3026;53.612;7.278;2023-03-13T00:44:05;99823.88;;;9.09;100.00
5996;BME280;3026;53.612;7.278;2023-03-13T00:46:32;99809.91;;;9.12;100.00
5996;BME280;3026;53.612;7.278;2023-03-13T00:48:59;99795.28;;;9.13;100.00
5996;BME280;3026;53.612;7.278;2023-03-13T00:51:27;99804.09;;;9.15;100.00
5996;BME280;3026;53.612;7.278;2023-03-13T00:53:55;99793.22;;;9.15;100.00
5996;BME280;3026;53.612;7.278;2023-03-13T00:56:24;99788.16;;;9.12;100.00
5996;BME280;3026;53.612;7.278;2023-03-13T00:58:52;99780.63;;;9.14;100.00
5996;BME280;3026;53.612;7.278;2023-03-13T01:01:21;99781.31;;;9.16;100.00
5996;BME280;3026;53.612;7.278;2023-03-13T01:03:50;99761.59;;;9.14;100.00
5996;BME280;3026;53.612;7.278;2023-03-13T01:06:19;99746.31;;;9.13;100.00
5996;BME280;3026;53.612;7.278;2023-03-13T01:08:47;99742.97;;;9.11;100.00
5996;BME280;3026;53.612;7.278;2023-03-13T01:11:16;99737.50;;;9.11;100.00
5996;BME280;3026;53.612;7.278;2023-03-13T01:13:44;99736.69;;;9.11;100.00
5996;BME280;3026;53.612;7.278;2023-03-13T01:16:14;99722.44;;;9.09;100.00
5996;BME280;3026;53.612;7.278;2023-03-13T01:18:43;99722.44;;;9.09;100.00
5996;BME280;3026;53.612;7.278;2023-03-13T01:21:11;99712.41;;;9.09;100.00
5996;BME280;3026;53.612;7.278;2023-03-13T01:23:39;99706.13;;;9.09;100.00
5996;BME280;3026;53.612;7.278;2023-03-13T01:26:06;99699.84;;;9.08;100.00
5996;BME280;3026;53.612;7.278;2023-03-13T01:28:34;99697.13;;;9.08;100.00
5996;BME280;3026;53.612;7.278;2023-03-13T01:31:09;99695.63;;;9.05;100.00
5996;BME280;3026;53.612;7.278;2023-03-13T01:33:38;99691.03;;;9.06;100.00
5996;BME280;3026;53.612;7.278;2023-03-13T01:36:06;99684.56;;;9.07;100.00
5996;BME280;3026;53.612;7.278;2023-03-13T01:38:33;99668.44;;;9.05;100.00
5996;BME280;3026;53.612;7.278;2023-03-13T01:41:00;99662.81;;;9.07;100.00
5996;BME280;3026;53.612;7.278;2023-03-13T01:43:29;99656.34;;;9.08;100.00
5996;BME280;3026;53.612;7.278;2023-03-13T01:45:59;99643.13;;;9.05;100.00
5996;BME280;3026;53.612;7.278;2023-03-13T01:48:32;99643.78;;;9.07;100.00
5996;BME280;3026;53.612;7.278;2023-03-13T01:51:05;99632.06;;;9.06;100.00
5996;BME280;3026;53.612;7.278;2023-03-13T01:53:36;99632.91;;;9.07;100.00
5996;BME280;3026;53.612;7.278;2023-03-13T01:56:05;99631.22;;;9.06;100.00
5996;BME280;3026;53.612;7.278;2023-03-13T01:58:34;99617.63;;;9.06;100.00
5996;BME280;3026;53.612;7.278;2023-03-13T02:01:04;99609.47;;;9.06;100.00
5996;BME280;3026;53.612;7.278;2023-03-13T02:03:33;99603.53;;;9.02;100.00
5996;BME280;3026;53.612;7.278;2023-03-13T02:06:03;99598.97;;;9.03;100.00
5996;BME280;3026;53.612;7.278;2023-03-13T02:08:34;99586.41;;;9.02;100.00
5996;BME280;3026;53.612;7.278;2023-03-13T02:11:09;99581.34;;;8.99;100.00
5996;BME280;3026;53.612;7.278;2023-03-13T02:13:42;99561.69;;;8.97;100.00
5996;BME280;3026;53.612;7.278;2023-03-13T02:16:09;99561.69;;;8.97;100.00
5996;BME280;3026;53.612;7.278;2023-03-13T02:18:37;99558.97;;;8.97;100.00
5996;BME280;3026;53.612;7.278;2023-03-13T02:21:10;99551.84;;;8.96;100.00
5996;BME280;3026;53.612;7.278;2023-03-13T02:23:48;99543.69;;;8.96;100.00
5996;BME280;3026;53.612;7.278;2023-03-13T02:26:19;99532.81;;;8.96;100.00
5996;BME280;3026;53.612;7.278;2023-03-13T02:28:46;99523.16;;;8.93;100.00
5996;BME280;3026;53.612;7.278;2023-03-13T02:31:14;99518.56;;;8.94;100.00
5996;BME280;3026;53.612;7.278;2023-03-13T02:33:42;99507.69;;;8.94;100.00
5996;BME280;3026;53.612;7.278;2023-03-13T02:36:10;99504.34;;;8.92;100.00
5996;BME280;3026;53.612;7.278;2023-03-13T02:38:43;99498.91;;;8.92;100.00
5996;BME280;3026;53.612;7.278;2023-03-13T02:41:12;99479.41;;;8.88;100.00
5996;BME280;3026;53.612;7.278;2023-03-13T02:43:41;99475.00;;;8.87;100.00
5996;BME280;3026;53.612;7.278;2023-03-13T02:46:10;99463.28;;;8.87;100.00
5996;BME280;3026;53.612;7.278;2023-03-13T02:48:40;99450.53;;;8.87;100.00
5996;BME280;3026;53.612;7.278;2023-03-13T02:51:11;99436.50;;;8.84;100.00
5996;BME280;3026;53.612;7.278;2023-03-13T02:53:41;99433.59;;;8.85;100.00
5996;BME280;3026;53.612;7.278;2023-03-13T02:56:10;99424.81;;;8.83;100.00
5996;BME280;3026;53.612;7.278;2023-03-13T02:58:41;99418.34;;;8.84;100.00
5996;BME280;3026;53.612;7.278;2023-03-13T03:01:09;99421.03;;;8.84;100.00
5996;BME280;3026;53.612;7.278;2023-03-13T03:03:36;99405.16;;;8.81;100.00
5996;BME280;3026;53.612;7.278;2023-03-13T03:06:04;99407.66;;;8.83;100.00
5996;BME280;3026;53.612;7.278;2023-03-13T03:08:31;99405.59;;;8.85;100.00
5996;BME280;3026;53.612;7.278;2023-03-13T03:10:59;99402.03;;;8.84;100.00
5996;BME280;3026;53.612;7.278;2023-03-13T03:13:25;99393.03;;;8.84;100.00
5996;BME280;3026;53.612;7.278;2023-03-13T03:15:54;99386.56;;;8.85;100.00
5996;BME280;3026;53.612;7.278;2023-03-13T03:18:21;99381.13;;;8.85;100.00
5996;BME280;3026;53.612;7.278;2023-03-13T03:20:48;99365.84;;;8.84;100.00
5996;BME280;3026;53.612;7.278;2023-03-13T03:23:14;99357.50;;;8.85;100.00
5996;BME280;3026;53.612;7.278;2023-03-13T03:25:41;99344.09;;;8.84;100.00
5996;BME280;3026;53.612;7.278;2023-03-13T03:28:08;99338.69;;;8.84;100.00
5996;BME280;3026;53.612;7.278;2023-03-13T03:30:35;99329.47;;;8.85;100.00
5996;BME280;3026;53.612;7.278;2023-03-13T03:33:03;99318.63;;;8.85;100.00
5996;BME280;3026;53.612;7.278;2023-03-13T03:35:30;99302.72;;;8.82;100.00
5996;BME280;3026;53.612;7.278;2023-03-13T03:37:58;99302.31;;;8.85;100.00
5996;BME280;3026;53.612;7.278;2023-03-13T03:40:25;99291.44;;;8.85;100.00
5996;BME280;3026;53.612;7.278;2023-03-13T03:42:52;99284.31;;;8.84;100.00
5996;BME280;3026;53.612;7.278;2023-03-13T03:45:19;99269.69;;;8.85;100.00
5996;BME280;3026;53.612;7.278;2023-03-13T03:47:46;99269.69;;;8.85;100.00
5996;BME280;3026;53.612;7.278;2023-03-13T03:50:14;99251.06;;;8.82;100.00
5996;BME280;3026;53.612;7.278;2023-03-13T03:52:41;99252.97;;;8.88;100.00
5996;BME280;3026;53.612;7.278;2023-03-13T03:55:08;99238.75;;;8.86;100.00
5996;BME280;3026;53.612;7.278;2023-03-13T03:57:35;99236.25;;;8.91;100.00
5996;BME280;3026;53.612;7.278;2023-03-13T04:00:03;99236.91;;;8.93;100.00
5996;BME280;3026;53.612;7.278;2023-03-13T04:02:32;99229.59;;;8.93;100.00
5996;BME280;3026;53.612;7.278;2023-03-13T04:04:59;99219.56;;;8.94;100.00
5996;BME280;3026;53.612;7.278;2023-03-13T04:07:27;99212.03;;;8.96;100.00
5996;BME280;3026;53.612;7.278;2023-03-13T04:09:54;99216.66;;;9.02;100.00
5996;BME280;3026;53.612;7.278;2023-03-13T04:12:21;99202.06;;;9.03;100.00
5996;BME280;3026;53.612;7.278;2023-03-13T04:14:48;99204.56;;;9.04;100.00
5996;BME280;3026;53.612;7.278;2023-03-13T04:17:14;99192.44;;;9.07;100.00
5996;BME280;3026;53.612;7.278;2023-03-13T04:19:41;99188.25;;;9.11;100.00
5996;BME280;3026;53.612;7.278;2023-03-13T04:22:08;99189.94;;;9.12;100.00
5996;BME280;3026;53.612;7.278;2023-03-13T04:24:37;99178.69;;;9.15;100.00
5996;BME280;3026;53.612;7.278;2023-03-13T04:27:03;99172.19;;;9.16;100.00
5996;BME280;3026;53.612;7.278;2023-03-13T04:29:31;99161.94;;;9.18;100.00
5996;BME280;3026;53.612;7.278;2023-03-13T04:31:58;99170.31;;;9.23;100.00
5996;BME280;3026;53.612;7.278;2023-03-13T04:34:25;99151.28;;;9.23;100.00
5996;BME280;3026;53.612;7.278;2023-03-13T04:36:52;99147.50;;;9.24;100.00
5996;BME280;3026;53.612;7.278;2023-03-13T04:39:18;99153.19;;;9.29;100.00
5996;BME280;3026;53.612;7.278;2023-03-13T04:41:50;99149.00;;;9.33;100.00
5996;BME280;3026;53.612;7.278;2023-03-13T04:44:17;99147.97;;;9.34;100.00
5996;BME280;3026;53.612;7.278;2023-03-13T04:46:44;99149.44;;;9.37;100.00
5996;BME280;3026;53.612;7.278;2023-03-13T04:49:11;99134.59;;;9.40;100.00
5996;BME280;3026;53.612;7.278;2023-03-13T04:51:38;99132.50;;;9.42;100.00
5996;BME280;3026;53.612;7.278;2023-03-13T04:54:05;99125.59;;;9.46;100.00
5996;BME280;3026;53.612;7.278;2023-03-13T04:56:32;99120.59;;;9.49;100.00
5996;BME280;3026;53.612;7.278;2023-03-13T04:59:00;99126.44;;;9.53;100.00
5996;BME280;3026;53.612;7.278;2023-03-13T05:01:27;99115.16;;;9.56;100.00
5996;BME280;3026;53.612;7.278;2023-03-13T05:03:54;99108.22;;;9.60;100.00
5996;BME280;3026;53.612;7.278;2023-03-13T05:06:21;99092.13;;;9.58;100.00
5996;BME280;3026;53.612;7.278;2023-03-13T05:08:48;99095.47;;;9.67;100.00
5996;BME280;3026;53.612;7.278;2023-03-13T05:11:15;99087.94;;;9.69;100.00
5996;BME280;3026;53.612;7.278;2023-03-13T05:13:42;99098.41;;;9.72;100.00
5996;BME280;3026;53.612;7.278;2023-03-13T05:16:10;99083.78;;;9.73;100.00
5996;BME280;3026;53.612;7.278;2023-03-13T05:18:37;99078.53;;;9.78;100.00
5996;BME280;3026;53.612;7.278;2023-03-13T05:21:04;99073.28;;;9.83;100.00
5996;BME280;3026;53.612;7.278;2023-03-13T05:23:31;99062.59;;;9.82;100.00
5996;BME280;3026;53.612;7.278;2023-03-13T05:25:58;99060.31;;;9.85;100.00
5996;BME280;3026;53.612;7.278;2023-03-13T05:28:26;99067.63;;;9.91;100.00
5996;BME280;3026;53.612;7.278;2023-03-13T05:30:52;99053.56;;;9.94;100.00
5996;BME280;3026;53.612;7.278;2023-03-13T05:33:25;99062.38;;;10.03;100.00
5996;BME280;3026;53.612;7.278;2023-03-13T05:35:52;99044.75;;;10.06;100.00
5996;BME280;3026;53.612;7.278;2023-03-13T05:38:18;99058.16;;;10.14;100.00
5996;BME280;3026;53.612;7.278;2023-03-13T05:40:45;99043.03;;;10.18;100.00
5996;BME280;3026;53.612;7.278;2023-03-13T05:43:12;99041.81;;;10.27;100.00
5996;BME280;3026;53.612;7.278;2023-03-13T05:45:39;99033.84;;;10.32;100.00
5996;BME280;3026;53.612;7.278;2023-03-13T05:48:06;99026.69;;;10.38;100.00
5996;BME280;3026;53.612;7.278;2023-03-13T05:50:34;99025.63;;;10.39;100.00
5996;BME280;3026;53.612;7.278;2023-03-13T05:53:01;99020.38;;;10.44;100.00
5996;BME280;3026;53.612;7.278;2023-03-13T05:55:28;99022.66;;;10.47;100.00
5996;BME280;3026;53.612;7.278;2023-03-13T05:57:55;99025.78;;;10.50;100.00
5996;BME280;3026;53.612;7.278;2023-03-13T06:00:22;99031.44;;;10.56;100.00
5996;BME280;3026;53.612;7.278;2023-03-13T06:02:49;99017.38;;;10.59;100.00
5996;BME280;3026;53.612;7.278;2023-03-13T06:05:16;99011.47;;;10.62;100.00
5996;BME280;3026;53.612;7.278;2023-03-13T06:07:44;99011.03;;;10.65;100.00
5996;BME280;3026;53.612;7.278;2023-03-13T06:10:11;99003.06;;;10.70;100.00
5996;BME280;3026;53.612;7.278;2023-03-13T06:12:38;99009.75;;;10.74;100.00
5996;BME280;3026;53.612;7.278;2023-03-13T06:15:06;99007.22;;;10.79;100.00
5996;BME280;3026;53.612;7.278;2023-03-13T06:17:34;99008.44;;;10.83;100.00
5996;BME280;3026;53.612;7.278;2023-03-13T06:20:02;98989.75;;;10.87;100.00
5996;BME280;3026;53.612;7.278;2023-03-13T06:22:30;98989.50;;;10.88;100.00
5996;BME280;3026;53.612;7.278;2023-03-13T06:24:58;98990.78;;;10.92;100.00
5996;BME280;3026;53.612;7.278;2023-03-13T06:27:25;98994.09;;;10.94;100.00
5996;BME280;3026;53.612;7.278;2023-03-13T06:29:52;98989.88;;;10.98;100.00
5996;BME280;3026;53.612;7.278;2023-03-13T06:32:19;98988.41;;;11.02;100.00
5996;BME280;3026;53.612;7.278;2023-03-13T06:34:46;98981.28;;;11.01;100.00
5996;BME280;3026;53.612;7.278;2023-03-13T06:37:12;98975.38;;;11.04;100.00
5996;BME280;3026;53.612;7.278;2023-03-13T06:39:39;98975.97;;;11.06;100.00
5996;BME280;3026;53.612;7.278;2023-03-13T06:42:08;98966.13;;;11.05;100.00
5996;BME280;3026;53.612;7.278;2023-03-13T06:44:34;98986.44;;;11.09;100.00
5996;BME280;3026;53.612;7.278;2023-03-13T06:47:01;98970.72;;;11.12;100.00
5996;BME280;3026;53.612;7.278;2023-03-13T06:49:28;98961.25;;;11.14;100.00
5996;BME280;3026;53.612;7.278;2023-03-13T06:51:56;98973.00;;;11.15;100.00
5996;BME280;3026;53.612;7.278;2023-03-13T06:54:24;98958.91;;;11.18;100.00
5996;BME280;3026;53.612;7.278;2023-03-13T06:56:52;98976.47;;;11.22;100.00
5996;BME280;3026;53.612;7.278;2023-03-13T06:59:20;98955.28;;;11.24;100.00
5996;BME280;3026;53.612;7.278;2023-03-13T07:01:47;98971.66;;;11.24;100.00
5996;BME280;3026;53.612;7.278;2023-03-13T07:04:14;98959.47;;;11.26;100.00
5996;BME280;3026;53.612;7.278;2023-03-13T07:06:41;98954.84;;;11.27;100.00
5996;BME280;3026;53.612;7.278;2023-03-13T07:09:08;98949.63;;;11.25;100.00
5996;BME280;3026;53.612;7.278;2023-03-13T07:11:35;98964.47;;;11.29;100.00
5996;BME280;3026;53.612;7.278;2023-03-13T07:14:03;98956.06;;;11.31;100.00
5996;BME280;3026;53.612;7.278;2023-03-13T07:16:31;98967.81;;;11.31;100.00
5996;BME280;3026;53.612;7.278;2023-03-13T07:18:58;98951.88;;;11.28;100.00
5996;BME280;3026;53.612;7.278;2023-03-13T07:21:24;98959.84;;;11.30;100.00
5996;BME280;3026;53.612;7.278;2023-03-13T07:23:51;98956.50;;;11.28;100.00
5996;BME280;3026;53.612;7.278;2023-03-13T07:26:18;98973.50;;;11.30;100.00
5996;BME280;3026;53.612;7.278;2023-03-13T07:28:45;98961.75;;;11.29;100.00
5996;BME280;3026;53.612;7.278;2023-03-13T07:31:13;98968.03;;;11.30;100.00
5996;BME280;3026;53.612;7.278;2023-03-13T07:33:42;98972.44;;;11.31;100.00
5996;BME280;3026;53.612;7.278;2023-03-13T07:36:11;98957.72;;;11.32;100.00
5996;BME280;3026;53.612;7.278;2023-03-13T07:38:38;98952.28;;;11.32;100.00
5996;BME280;3026;53.612;7.278;2023-03-13T07:41:05;98942.41;;;11.31;100.00
5996;BME280;3026;53.612;7.278;2023-03-13T07:43:32;98958.78;;;11.31;100.00
5996;BME280;3026;53.612;7.278;2023-03-13T07:46:00;98955.59;;;11.34;100.00
5996;BME280;3026;53.612;7.278;2023-03-13T07:48:29;98943.66;;;11.35;100.00
5996;BME280;3026;53.612;7.278;2023-03-13T07:50:58;98944.28;;;11.37;100.00
5996;BME280;3026;53.612;7.278;2023-03-13T07:53:26;98935.47;;;11.35;100.00
5996;BME280;3026;53.612;7.278;2023-03-13T07:55:55;98947.59;;;11.39;100.00
5996;BME280;3026;53.612;7.278;2023-03-13T07:58:23;98951.75;;;11.42;100.00
5996;BME280;3026;53.612;7.278;2023-03-13T08:00:50;98945.03;;;11.44;100.00
5996;BME280;3026;53.612;7.278;2023-03-13T08:03:17;98937.47;;;11.46;100.00
5996;BME280;3026;53.612;7.278;2023-03-13T08:05:44;98941.63;;;11.49;100.00
5996;BME280;3026;53.612;7.278;2023-03-13T08:08:12;98952.94;;;11.52;100.00
5996;BME280;3026;53.612;7.278;2023-03-13T08:10:39;98947.00;;;11.55;100.00
5996;BME280;3026;53.612;7.278;2023-03-13T08:13:06;98934.44;;;11.54;100.00
5996;BME280;3026;53.612;7.278;2023-03-13T08:15:33;98939.00;;;11.60;100.00
5996;BME280;3026;53.612;7.278;2023-03-13T08:18:00;98928.50;;;11.57;100.00
5996;BME280;3026;53.612;7.278;2023-03-13T08:20:27;98942.34;;;11.62;100.00
5996;BME280;3026;53.612;7.278;2023-03-13T08:22:55;98941.88;;;11.65;100.00
5996;BME280;3026;53.612;7.278;2023-03-13T08:25:24;98940.22;;;11.64;100.00
5996;BME280;3026;53.612;7.278;2023-03-13T08:27:51;98937.66;;;11.69;100.00
5996;BME280;3026;53.612;7.278;2023-03-13T08:30:18;98946.22;;;11.73;100.00
5996;BME280;3026;53.612;7.278;2023-03-13T08:32:45;98939.94;;;11.73;100.00
5996;BME280;3026;53.612;7.278;2023-03-13T08:35:12;98951.69;;;11.73;100.00
5996;BME280;3026;53.612;7.278;2023-03-13T08:37:39;98960.69;;;11.74;100.00
5996;BME280;3026;53.612;7.278;2023-03-13T08:40:07;98968.44;;;11.77;100.00
5996;BME280;3026;53.612;7.278;2023-03-13T08:42:37;98951.00;;;11.78;100.00
5996;BME280;3026;53.612;7.278;2023-03-13T08:45:06;98959.81;;;11.80;100.00
5996;BME280;3026;53.612;7.278;2023-03-13T08:47:33;98959.38;;;11.83;100.00
5996;BME280;3026;53.612;7.278;2023-03-13T08:50:00;98931.25;;;11.82;100.00
5996;BME280;3026;53.612;7.278;2023-03-13T08:52:27;98956.56;;;11.89;100.00
5996;BME280;3026;53.612;7.278;2023-03-13T08:54:54;98956.34;;;11.91;100.00
5996;BME280;3026;53.612;7.278;2023-03-13T08:57:21;98951.63;;;11.98;100.00
5996;BME280;3026;53.612;7.278;2023-03-13T08:59:50;98946.72;;;12.07;100.00
5996;BME280;3026;53.612;7.278;2023-03-13T09:02:17;98949.94;;;12.15;100.00
5996;BME280;3026;53.612;7.278;2023-03-13T09:04:46;98932.78;;;12.26;100.00
5996;BME280;3026;53.612;7.278;2023-03-13T09:07:16;98935.44;;;12.33;100.00
5996;BME280;3026;53.612;7.278;2023-03-13T09:09:43;98937.63;;;12.43;100.00
5996;BME280;3026;53.612;7.278;2023-03-13T09:12:10;98945.53;;;12.51;100.00
5996;BME280;3026;53.612;7.278;2023-03-13T09:14:37;98923.31;;;12.59;100.00
5996;BME280;3026;53.612;7.278;2023-03-13T09:17:05;98942.25;;;12.72;100.00
5996;BME280;3026;53.612;7.278;2023-03-13T09:19:32;98936.75;;;12.91;100.00
5996;BME280;3026;53.612;7.278;2023-03-13T09:21:59;98937.84;;;13.13;100.00
5996;BME280;3026;53.612;7.278;2023-03-13T09:24:26;98944.44;;;13.24;100.00
5996;BME280;3026;53.612;7.278;2023-03-13T09:26:53;98946.03;;;13.31;100.00
5996;BME280;3026;53.612;7.278;2023-03-13T09:29:20;98935.28;;;13.41;100.00
5996;BME280;3026;53.612;7.278;2023-03-13T09:31:47;98942.81;;;13.58;100.00
5996;BME280;3026;53.612;7.278;2023-03-13T09:34:15;98946.84;;;13.79;100.00
5996;BME280;3026;53.612;7.278;2023-03-13T09:36:42;98947.31;;;13.87;100.00
5996;BME280;3026;53.612;7.278;2023-03-13T09:39:09;98937.66;;;13.96;100.00
5996;BME280;3026;53.612;7.278;2023-03-13T09:41:39;98949.53;;;14.14;100.00
5996;BME280;3026;53.612;7.278;2023-03-13T09:44:13;98961.19;;;14.21;100.00
5996;BME280;3026;53.612;7.278;2023-03-13T09:46:46;98962.38;;;14.25;100.00
5996;BME280;3026;53.612;7.278;2023-03-13T09:49:28;98941.72;;;14.34;100.00
5996;BME280;3026;53.612;7.278;2023-03-13T09:52:01;98946.13;;;14.47;100.00
5996;BME280;3026;53.612;7.278;2023-03-13T09:54:34;98941.44;;;14.59;100.00
5996;BME280;3026;53.612;7.278;2023-03-13T09:57:06;98953.41;;;14.70;100.00
5996;BME280;3026;53.612;7.278;2023-03-13T09:59:48;98964.25;;;14.76;100.00
5996;BME280;3026;53.612;7.278;2023-03-13T10:02:28;98973.00;;;14.73;100.00
5996;BME280;3026;53.612;7.278;2023-03-13T10:05:02;98955.78;;;14.78;100.00
5996;BME280;3026;53.612;7.278;2023-03-13T10:07:30;98945.81;;;14.72;100.00
5996;BME280;3026;53.612;7.278;2023-03-13T10:09:59;98967.56;;;14.62;100.00
5996;BME280;3026;53.612;7.278;2023-03-13T10:12:28;98974.97;;;14.49;100.00
5996;BME280;3026;53.612;7.278;2023-03-13T10:15:06;98967.22;;;14.35;100.00
5996;BME280;3026;53.612;7.278;2023-03-13T10:17:42;98963.34;;;14.19;100.00
5996;BME280;3026;53.612;7.278;2023-03-13T10:20:18;98966.22;;;14.00;100.00
5996;BME280;3026;53.612;7.278;2023-03-13T10:22:46;98974.59;;;13.82;100.00
5996;BME280;3026;53.612;7.278;2023-03-13T10:25:23;98950.53;;;13.61;100.00
5996;BME280;3026;53.612;7.278;2023-03-13T10:27:53;98951.97;;;13.52;100.00
5996;BME280;3026;53.612;7.278;2023-03-13T10:30:23;98935.09;;;13.55;100.00
5996;BME280;3026;53.612;7.278;2023-03-13T10:32:54;98943.88;;;13.57;100.00
5996;BME280;3026;53.612;7.278;2023-03-13T10:35:31;98935.66;;;13.57;100.00
5996;BME280;3026;53.612;7.278;2023-03-13T10:38:04;98931.97;;;13.63;100.00
5996;BME280;3026;53.612;7.278;2023-03-13T10:40:32;98939.81;;;13.71;100.00
5996;BME280;3026;53.612;7.278;2023-03-13T10:43:01;98907.31;;;13.75;100.00
5996;BME280;3026;53.612;7.278;2023-03-13T10:45:31;98928.63;;;13.84;100.00
5996;BME280;3026;53.612;7.278;2023-03-13T10:48:02;98936.47;;;13.92;100.00
5996;BME280;3026;53.612;7.278;2023-03-13T10:50:33;98925.25;;;14.06;100.00
5996;BME280;3026;53.612;7.278;2023-03-13T10:53:16;98922.34;;;14.24;100.00
5996;BME280;3026;53.612;7.278;2023-03-13T10:55:45;98918.00;;;14.40;100.00
5996;BME280;3026;53.612;7.278;2023-03-13T10:58:18;98908.69;;;14.52;100.00
5996;BME280;3026;53.612;7.278;2023-03-13T11:00:46;98915.97;;;14.75;100.00
5996;BME280;3026;53.612;7.278;2023-03-13T11:03:15;98927.63;;;14.82;100.00
5996;BME280;3026;53.612;7.278;2023-03-13T11:05:54;98932.38;;;14.87;100.00
5996;BME280;3026;53.612;7.278;2023-03-13T11:08:23;98913.72;;;14.89;100.00
5996;BME280;3026;53.612;7.278;2023-03-13T11:10:53;98944.81;;;14.78;100.00
5996;BME280;3026;53.612;7.278;2023-03-13T11:13:35;98927.19;;;14.74;100.00
5996;BME280;3026;53.612;7.278;2023-03-13T11:16:13;98932.34;;;14.70;100.00
5996;BME280;3026;53.612;7.278;2023-03-13T11:18:48;98918.00;;;14.68;100.00
5996;BME280;3026;53.612;7.278;2023-03-13T11:21:26;98909.72;;;14.80;100.00
5996;BME280;3026;53.612;7.278;2023-03-13T11:23:58;98922.06;;;14.94;100.00
5996;BME280;3026;53.612;7.278;2023-03-13T11:26:33;98922.06;;;14.94;100.00
5996;BME280;3026;53.612;7.278;2023-03-13T11:29:08;98947.69;;;15.00;100.00
5996;BME280;3026;53.612;7.278;2023-03-13T11:31:39;98899.69;;;15.02;100.00
5996;BME280;3026;53.612;7.278;2023-03-13T11:34:11;98917.56;;;15.05;100.00
5996;BME280;3026;53.612;7.278;2023-03-13T11:36:47;98925.56;;;15.06;100.00
5996;BME280;3026;53.612;7.278;2023-03-13T11:39:36;98927.88;;;15.14;100.00
5996;BME280;3026;53.612;7.278;2023-03-13T11:42:15;98924.06;;;15.15;100.00
5996;BME280;3026;53.612;7.278;2023-03-13T11:44:51;98936.06;;;15.09;100.00
5996;BME280;3026;53.612;7.278;2023-03-13T11:47:36;98922.22;;;15.04;100.00
5996;BME280;3026;53.612;7.278;2023-03-13T11:50:25;98906.75;;;15.15;100.00
5996;BME280;3026;53.612;7.278;2023-03-13T11:53:07;98890.06;;;15.16;100.00
5996;BME280;3026;53.612;7.278;2023-03-13T11:55:49;98908.53;;;15.21;100.00
5996;BME280;3026;53.612;7.278;2023-03-13T11:58:35;98898.31;;;15.16;100.00
5996;BME280;3026;53.612;7.278;2023-03-13T12:01:06;98910.19;;;15.05;100.00
5996;BME280;3026;53.612;7.278;2023-03-13T12:03:38;98899.19;;;14.88;100.00
5996;BME280;3026;53.612;7.278;2023-03-13T12:06:15;98894.44;;;14.84;100.00
5996;BME280;3026;53.612;7.278;2023-03-13T12:08:49;98902.56;;;14.79;100.00
5996;BME280;3026;53.612;7.278;2023-03-13T12:11:21;98892.19;;;14.81;100.00
5996;BME280;3026;53.612;7.278;2023-03-13T12:13:55;98894.44;;;14.84;100.00
5996;BME280;3026;53.612;7.278;2023-03-13T12:16:28;98890.97;;;14.88;100.00
5996;BME280;3026;53.612;7.278;2023-03-13T12:18:57;98873.16;;;14.91;100.00
5996;BME280;3026;53.612;7.278;2023-03-13T12:21:29;98892.28;;;14.86;100.00
5996;BME280;3026;53.612;7.278;2023-03-13T12:24:03;98898.75;;;14.80;100.00
5996;BME280;3026;53.612;7.278;2023-03-13T12:26:37;98860.16;;;14.70;100.00
5996;BME280;3026;53.612;7.278;2023-03-13T12:29:11;98876.53;;;14.65;100.00
5996;BME280;3026;53.612;7.278;2023-03-13T12:31:44;98885.75;;;14.58;100.00
5996;BME280;3026;53.612;7.278;2023-03-13T12:34:16;98881.00;;;14.54;100.00
5996;BME280;3026;53.612;7.278;2023-03-13T12:36:47;98871.94;;;14.53;100.00
5996;BME280;3026;53.612;7.278;2023-03-13T12:39:27;98876.84;;;14.51;100.00
5996;BME280;3026;53.612;7.278;2023-03-13T12:42:08;98884.75;;;14.48;100.00
5996;BME280;3026;53.612;7.278;2023-03-13T12:44:36;98890.34;;;14.41;100.00
5996;BME280;3026;53.612;7.278;2023-03-13T12:47:09;98887.00;;;14.39;100.00
5996;BME280;3026;53.612;7.278;2023-03-13T12:50:01;98882.75;;;14.31;100.00
5996;BME280;3026;53.612;7.278;2023-03-13T12:52:57;98884.44;;;14.21;100.00
5996;BME280;3026;53.612;7.278;2023-03-13T12:55:39;98909.97;;;14.10;100.00
5996;BME280;3026;53.612;7.278;2023-03-13T12:58:24;98878.91;;;14.04;100.00
5996;BME280;3026;53.612;7.278;2023-03-13T13:00:54;98881.41;;;14.06;100.00
5996;BME280;3026;53.612;7.278;2023-03-13T13:03:28;98872.59;;;14.04;100.00
5996;BME280;3026;53.612;7.278;2023-03-13T13:06:01;98848.72;;;14.16;100.00
5996;BME280;3026;53.612;7.278;2023-03-13T13:08:32;98861.75;;;14.37;100.00
5996;BME280;3026;53.612;7.278;2023-03-13T13:11:41;98845.03;;;14.50;100.00
5996;BME280;3026;53.612;7.278;2023-03-13T13:17:22;98840.88;;;15.15;100.00
5996;BME280;3026;53.612;7.278;2023-03-13T13:19:51;98856.84;;;15.35;100.00
5996;BME280;3026;53.612;7.278;2023-03-13T13:22:47;98851.94;;;15.37;100.00
5996;BME280;3026;53.612;7.278;2023-03-13T13:25:27;98829.03;;;15.48;100.00
5996;BME280;3026;53.612;7.278;2023-03-13T13:27:56;98823.19;;;15.61;100.00
5996;BME280;3026;53.612;7.278;2023-03-13T13:30:36;98821.16;;;15.73;100.00
5996;BME280;3026;53.612;7.278;2023-03-13T13:33:35;98837.28;;;15.87;100.00